createdAt,value
2022-12-27T00:02:27.762Z,2.53
2022-12-27T00:04:56.373Z,2.47
2022-12-27T00:07:24.834Z,3.03
2022-12-27T00:09:55.786Z,2.50
2022-12-27T00:12:24.220Z,2.65
2022-12-27T00:14:53.405Z,2.78
2022-12-27T00:17:21.809Z,2.53
2022-12-27T00:19:51.946Z,2.50
2022-12-27T00:22:20.511Z,2.70
2022-12-27T00:24:49.481Z,3.05
2022-12-27T00:27:17.968Z,2.85
2022-12-27T00:29:46.595Z,2.97
2022-12-27T00:32:15.124Z,2.85
2022-12-27T00:34:43.560Z,2.58
2022-12-27T00:37:13.677Z,2.70
2022-12-27T00:39:43.198Z,2.40
2022-12-27T00:42:11.758Z,2.72
2022-12-27T00:44:43.369Z,2.58
2022-12-27T00:47:12.011Z,2.22
2022-12-27T00:49:40.676Z,2.45
2022-12-27T00:52:09.114Z,2.60
2022-12-27T00:54:39.184Z,2.47
2022-12-27T00:57:07.740Z,2.15
2022-12-27T00:59:36.218Z,2.30
2022-12-27T01:02:04.955Z,2.33
2022-12-27T01:04:33.645Z,2.17
2022-12-27T01:07:02.097Z,2.50
2022-12-27T01:09:31.217Z,2.42
2022-12-27T01:12:01.095Z,2.40
2022-12-27T01:14:29.570Z,2.30
2022-12-27T01:16:58.265Z,2.53
2022-12-27T01:19:26.769Z,2.28
2022-12-27T01:21:55.326Z,2.42
2022-12-27T01:24:24.289Z,2.80
2022-12-27T01:26:52.700Z,2.80
2022-12-27T01:29:22.620Z,2.20
2022-12-27T01:31:51.557Z,2.50
2022-12-27T01:34:20.501Z,2.60
2022-12-27T01:36:49.187Z,2.65
2022-12-27T01:39:17.751Z,2.72
2022-12-27T01:42:04.062Z,3.53
2022-12-27T01:45:04.687Z,3.60
2022-12-27T01:47:41.724Z,3.85
2022-12-27T01:50:19.672Z,3.72
2022-12-27T01:52:53.616Z,3.90
2022-12-27T01:55:28.781Z,3.78
2022-12-27T01:57:59.889Z,4.03
2022-12-27T02:00:29.928Z,4.22
2022-12-27T02:03:00.856Z,4.13
2022-12-27T02:05:30.324Z,4.15
2022-12-27T02:08:19.851Z,3.78
2022-12-27T02:10:48.386Z,4.15
2022-12-27T02:13:18.082Z,4.10
2022-12-27T02:15:48.515Z,4.55
2022-12-27T02:18:17.602Z,5.15
2022-12-27T02:21:09.614Z,4.95
2022-12-27T02:24:06.966Z,4.57
2022-12-27T02:26:54.804Z,4.22
2022-12-27T02:29:37.276Z,4.07
2022-12-27T02:32:09.387Z,4.32
2022-12-27T02:34:46.515Z,4.10
2022-12-27T02:37:15.742Z,3.97
2022-12-27T02:39:48.201Z,4.07
2022-12-27T02:42:35.777Z,4.03
2022-12-27T02:45:44.314Z,4.03
2022-12-27T02:48:33.552Z,4.07
2022-12-27T02:51:31.999Z,3.88
2022-12-27T02:54:13.232Z,3.60
2022-12-27T02:57:08.758Z,3.22
2022-12-27T03:00:21.394Z,3.25
2022-12-27T03:03:24.231Z,3.55
2022-12-27T03:06:42.398Z,2.63
2022-12-27T03:09:43.216Z,3.65
2022-12-27T03:12:40.374Z,2.88
2022-12-27T03:15:58.233Z,3.28
2022-12-27T03:18:39.512Z,3.20
2022-12-27T03:21:26.983Z,2.95
2022-12-27T03:24:13.806Z,3.50
2022-12-27T03:26:48.031Z,2.70
2022-12-27T03:29:40.711Z,3.15
2022-12-27T03:32:30.078Z,3.40
2022-12-27T03:35:07.135Z,3.40
2022-12-27T03:37:56.796Z,3.20
2022-12-27T03:40:35.287Z,2.88
2022-12-27T03:43:13.193Z,3.53
2022-12-27T03:46:16.549Z,3.30
2022-12-27T03:49:05.744Z,2.88
2022-12-27T03:51:39.491Z,2.72
2022-12-27T03:54:13.950Z,2.65
2022-12-27T03:56:42.776Z,3.42
2022-12-27T03:59:13.657Z,3.60
2022-12-27T04:01:43.628Z,2.50
2022-12-27T04:04:12.193Z,2.70
2022-12-27T04:06:42.193Z,2.90
2022-12-27T04:09:28.988Z,3.22
2022-12-27T04:12:16.029Z,2.63
2022-12-27T04:15:02.592Z,3.38
2022-12-27T04:17:50.195Z,2.83
2022-12-27T04:20:36.156Z,3.50
2022-12-27T04:23:23.579Z,3.40
2022-12-27T04:26:09.531Z,3.78
2022-12-27T04:28:55.548Z,3.42
2022-12-27T04:31:41.654Z,2.95
2022-12-27T04:34:27.692Z,3.38
2022-12-27T04:36:56.466Z,4.10
2022-12-27T04:39:26.368Z,3.90
2022-12-27T04:42:12.430Z,3.60
2022-12-27T04:44:58.598Z,3.75
2022-12-27T04:47:45.263Z,4.05
2022-12-27T04:50:39.294Z,5.60
2022-12-27T04:53:29.287Z,6.38
2022-12-27T04:55:59.327Z,4.57
2022-12-27T04:58:28.237Z,13.40
2022-12-27T05:01:16.213Z,5.38
2022-12-27T05:03:45.756Z,4.55
2022-12-27T05:06:15.587Z,4.20
2022-12-27T05:09:02.229Z,5.07
2022-12-27T05:11:49.141Z,4.70
2022-12-27T05:14:18.292Z,4.95
2022-12-27T05:16:46.790Z,4.28
2022-12-27T05:19:16.138Z,3.78
2022-12-27T05:22:06.983Z,4.75
2022-12-27T05:24:53.033Z,5.90
2022-12-27T05:27:22.957Z,4.72
2022-12-27T05:29:51.399Z,4.63
2022-12-27T05:32:19.896Z,4.55
2022-12-27T05:34:48.445Z,4.97
2022-12-27T05:37:17.962Z,5.18
2022-12-27T05:39:46.538Z,4.85
2022-12-27T05:42:15.283Z,6.43
2022-12-27T05:44:45.309Z,6.05
2022-12-27T05:47:14.318Z,5.53
2022-12-27T05:49:42.761Z,5.18
2022-12-27T05:52:11.515Z,4.90
2022-12-27T05:54:40.988Z,5.38
2022-12-27T05:57:09.515Z,5.07
2022-12-27T05:59:38.230Z,4.95
2022-12-27T06:02:08.318Z,5.07
2022-12-27T06:04:36.927Z,5.55
2022-12-27T06:07:05.590Z,5.50
2022-12-27T06:09:34.211Z,5.90
2022-12-27T06:12:03.110Z,6.03
2022-12-27T06:14:31.597Z,5.40
2022-12-27T06:17:00.832Z,5.35
2022-12-27T06:19:30.991Z,4.93
2022-12-27T06:21:59.725Z,4.80
2022-12-27T06:24:28.299Z,4.40
2022-12-27T06:26:56.745Z,4.45
2022-12-27T06:29:25.454Z,4.50
2022-12-27T06:31:54.204Z,5.50
2022-12-27T06:34:22.765Z,4.78
2022-12-27T06:36:52.673Z,4.70
2022-12-27T06:39:21.772Z,5.43
2022-12-27T06:41:55.255Z,5.38
2022-12-27T06:44:24.045Z,4.55
2022-12-27T06:46:52.592Z,5.50
2022-12-27T06:49:21.074Z,5.45
2022-12-27T06:51:54.260Z,5.57
2022-12-27T06:54:27.393Z,5.80
2022-12-27T06:56:57.103Z,5.97
2022-12-27T06:59:26.000Z,5.65
2022-12-27T07:01:55.028Z,5.90
2022-12-27T07:04:23.746Z,5.78
2022-12-27T07:06:52.179Z,6.38
2022-12-27T07:09:20.821Z,6.38
2022-12-27T07:11:50.641Z,7.15
2022-12-27T07:14:19.089Z,6.93
2022-12-27T07:16:50.123Z,6.40
2022-12-27T07:19:18.638Z,5.60
2022-12-27T07:21:47.150Z,6.13
2022-12-27T07:24:15.838Z,5.32
2022-12-27T07:26:45.205Z,5.38
2022-12-27T07:29:15.123Z,5.68
2022-12-27T07:31:43.577Z,5.80
2022-12-27T07:34:12.115Z,5.82
2022-12-27T07:36:44.907Z,6.05
2022-12-27T07:39:14.075Z,5.90
2022-12-27T07:41:42.565Z,5.80
2022-12-27T07:44:11.749Z,5.90
2022-12-27T07:46:41.822Z,5.63
2022-12-27T07:49:17.350Z,6.13
2022-12-27T07:51:47.373Z,6.60
2022-12-27T07:54:16.637Z,6.38
2022-12-27T07:56:45.453Z,6.43
2022-12-27T07:59:14.680Z,5.97
2022-12-27T08:01:58.519Z,6.57
2022-12-27T08:04:27.360Z,6.43
2022-12-27T08:06:58.218Z,6.10
2022-12-27T08:09:32.828Z,6.38
2022-12-27T08:12:01.448Z,6.45
2022-12-27T08:14:31.106Z,6.20
2022-12-27T08:17:06.202Z,6.78
2022-12-27T08:19:35.107Z,7.22
2022-12-27T08:22:05.341Z,6.40
2022-12-27T08:24:34.259Z,7.10
2022-12-27T08:27:02.934Z,7.22
2022-12-27T08:29:31.597Z,8.05
2022-12-27T08:32:01.583Z,7.63
2022-12-27T08:34:30.113Z,7.82
2022-12-27T08:37:02.018Z,7.70
2022-12-27T08:39:31.397Z,8.10
2022-12-27T08:41:59.842Z,8.90
2022-12-27T08:44:28.421Z,9.93
2022-12-27T08:46:56.936Z,7.78
2022-12-27T08:49:26.931Z,7.88
2022-12-27T08:51:55.915Z,6.65
2022-12-27T08:54:25.761Z,10.10
2022-12-27T08:56:54.430Z,8.38
2022-12-27T08:59:22.940Z,14.38
2022-12-27T09:01:51.788Z,10.18
2022-12-27T09:04:20.276Z,7.13
2022-12-27T09:06:50.353Z,9.45
2022-12-27T09:09:19.303Z,7.80
2022-12-27T09:11:47.941Z,14.55
2022-12-27T09:14:16.359Z,8.18
2022-12-27T09:16:44.829Z,11.45
2022-12-27T09:19:13.259Z,13.68
2022-12-27T09:21:44.171Z,11.65
2022-12-27T09:24:15.066Z,17.15
2022-12-27T09:26:43.821Z,12.10
2022-12-27T09:29:22.480Z,15.63
2022-12-27T09:31:50.967Z,15.13
2022-12-27T09:34:19.429Z,15.82
2022-12-27T09:36:47.923Z,12.18
2022-12-27T09:39:18.006Z,12.65
2022-12-27T09:44:51.086Z,8.10
2022-12-27T09:47:25.557Z,6.50
2022-12-27T09:49:58.510Z,6.28
2022-12-27T09:52:31.821Z,7.25
2022-12-27T09:55:06.920Z,9.85
2022-12-27T09:57:40.226Z,9.40
2022-12-27T10:00:16.450Z,13.00
2022-12-27T10:02:46.484Z,9.55
2022-12-27T10:05:22.819Z,10.35
2022-12-27T10:08:07.469Z,11.30
2022-12-27T10:10:45.433Z,9.68
2022-12-27T10:13:26.596Z,10.38
2022-12-27T10:16:04.060Z,8.52
2022-12-27T10:18:43.965Z,9.40
2022-12-27T10:21:21.168Z,18.00
2022-12-27T10:23:55.643Z,11.07
2022-12-27T10:26:26.659Z,10.10
2022-12-27T10:28:59.684Z,10.57
2022-12-27T10:31:29.049Z,10.57
2022-12-27T10:33:58.573Z,9.68
2022-12-27T10:36:29.650Z,9.90
2022-12-27T10:38:58.455Z,8.77
2022-12-27T10:41:40.094Z,9.50
2022-12-27T10:44:11.778Z,9.32
2022-12-27T10:46:42.592Z,8.95
2022-12-27T10:49:24.807Z,9.52
2022-12-27T10:51:56.580Z,9.88
2022-12-27T10:54:29.288Z,10.90
2022-12-27T10:57:21.013Z,10.38
2022-12-27T11:02:51.079Z,9.77
2022-12-27T11:05:23.074Z,11.48
2022-12-27T11:07:54.776Z,11.60
2022-12-27T11:10:25.159Z,12.02
2022-12-27T11:13:02.321Z,11.98
2022-12-27T11:15:34.834Z,11.68
2022-12-27T11:18:11.219Z,12.82
2022-12-27T11:20:42.222Z,11.90
2022-12-27T11:23:16.931Z,12.77
2022-12-27T11:25:53.750Z,12.68
2022-12-27T11:28:30.341Z,14.88
2022-12-27T11:31:02.437Z,15.13
2022-12-27T11:33:37.672Z,12.93
2022-12-27T11:36:08.731Z,14.27
2022-12-27T11:38:39.338Z,12.80
2022-12-27T11:41:12.146Z,12.55
2022-12-27T11:43:48.997Z,11.82
2022-12-27T11:46:28.113Z,12.82
2022-12-27T11:48:58.627Z,12.43
2022-12-27T11:52:00.318Z,12.40
2022-12-27T11:55:05.284Z,12.52
2022-12-27T11:57:56.890Z,12.45
2022-12-27T12:00:34.719Z,12.10
2022-12-27T12:03:36.649Z,12.80
2022-12-27T12:06:15.578Z,16.70
2022-12-27T12:09:04.905Z,16.40
2022-12-27T12:11:54.620Z,18.77
2022-12-27T12:14:57.478Z,13.73
2022-12-27T12:17:55.722Z,13.13
2022-12-27T12:21:00.005Z,16.13
2022-12-27T12:23:46.980Z,14.10
2022-12-27T12:26:20.073Z,14.05
2022-12-27T12:29:32.162Z,15.65
2022-12-27T12:32:33.824Z,14.60
2022-12-27T12:35:26.207Z,14.70
2022-12-27T12:38:04.766Z,14.07
2022-12-27T12:40:52.067Z,13.15
2022-12-27T12:43:41.032Z,13.13
2022-12-27T12:46:26.256Z,13.38
2022-12-27T12:49:18.015Z,13.85
2022-12-27T12:52:12.319Z,13.32
2022-12-27T12:55:09.636Z,12.95
2022-12-27T12:57:50.041Z,15.48
2022-12-27T13:03:27.130Z,11.25
2022-12-27T13:06:05.583Z,12.18
2022-12-27T13:08:44.541Z,11.65
2022-12-27T13:11:54.065Z,12.63
2022-12-27T13:14:42.505Z,12.48
2022-12-27T13:17:20.456Z,10.95
2022-12-27T13:20:03.951Z,12.15
2022-12-27T13:22:49.485Z,10.93
2022-12-27T13:25:29.583Z,11.20
2022-12-27T13:28:07.659Z,11.60
2022-12-27T13:30:43.178Z,12.55
2022-12-27T13:33:27.281Z,13.10
2022-12-27T13:36:11.252Z,11.77
2022-12-27T13:38:55.626Z,12.18
2022-12-27T13:41:43.555Z,12.15
2022-12-27T13:44:32.884Z,11.95
2022-12-27T13:47:44.596Z,13.43
2022-12-27T13:50:24.881Z,12.43
2022-12-27T13:53:05.942Z,11.02
2022-12-27T13:55:45.738Z,12.18
2022-12-27T13:58:45.818Z,11.40
2022-12-27T14:01:53.852Z,12.15
2022-12-27T14:04:44.723Z,11.38
2022-12-27T14:07:32.408Z,14.88
2022-12-27T14:10:12.946Z,12.55
2022-12-27T14:13:08.941Z,16.48
2022-12-27T14:16:02.332Z,12.20
2022-12-27T14:18:53.872Z,12.10
2022-12-27T14:21:57.843Z,14.73
2022-12-27T14:25:11.174Z,14.65
2022-12-27T14:28:10.384Z,13.57
2022-12-27T14:34:16.875Z,13.52
2022-12-27T14:37:10.105Z,14.27
2022-12-27T14:40:10.627Z,12.90
2022-12-27T14:43:12.775Z,17.20
2022-12-27T14:46:16.997Z,11.98
2022-12-27T14:49:27.652Z,11.90
2022-12-27T14:52:49.922Z,11.02
2022-12-27T14:55:41.082Z,15.10
2022-12-27T14:58:22.218Z,10.63
2022-12-27T15:01:13.757Z,10.90
2022-12-27T15:03:55.581Z,11.13
2022-12-27T15:07:05.352Z,10.27
2022-12-27T15:09:44.280Z,10.93
2022-12-27T15:12:26.008Z,10.65
2022-12-27T15:15:25.699Z,10.07
2022-12-27T15:18:16.634Z,11.02
2022-12-27T15:21:08.892Z,9.48
2022-12-27T15:23:47.780Z,10.40
2022-12-27T15:26:31.561Z,10.55
2022-12-27T15:29:19.005Z,11.00
2022-12-27T15:31:58.225Z,12.20
2022-12-27T15:34:52.378Z,11.82
2022-12-27T15:38:01.705Z,10.35
2022-12-27T15:40:50.777Z,12.02
2022-12-27T15:43:52.691Z,11.75
2022-12-27T15:47:09.927Z,10.55
2022-12-27T15:50:06.232Z,12.63
2022-12-27T15:52:59.792Z,11.23
2022-12-27T15:55:52.956Z,11.75
2022-12-27T15:58:29.863Z,10.32
2022-12-27T16:01:26.173Z,10.07
2022-12-27T16:03:58.584Z,10.15
2022-12-27T16:06:50.415Z,11.60
2022-12-27T16:09:38.108Z,10.52
2022-12-27T16:12:11.272Z,15.57
2022-12-27T16:14:43.297Z,15.15
2022-12-27T16:17:32.767Z,15.05
2022-12-27T16:20:19.555Z,10.57
2022-12-27T16:22:54.821Z,9.05
2022-12-27T16:25:31.234Z,11.20
2022-12-27T16:28:07.794Z,15.80
2022-12-27T16:30:45.603Z,16.05
2022-12-27T16:33:33.677Z,16.67
2022-12-27T16:36:28.816Z,10.73
2022-12-27T16:42:29.203Z,12.63
2022-12-27T16:45:37.062Z,10.63
2022-12-27T16:48:20.837Z,11.95
2022-12-27T16:51:02.721Z,14.02
2022-12-27T16:54:03.458Z,12.40
2022-12-27T16:56:33.868Z,17.75
2022-12-27T16:59:02.815Z,14.45
2022-12-27T17:02:02.143Z,15.38
2022-12-27T17:04:54.233Z,14.95
2022-12-27T17:07:51.956Z,19.50
2022-12-27T17:10:59.581Z,17.70
2022-12-27T17:13:45.842Z,15.50
2022-12-27T17:16:21.949Z,14.52
2022-12-27T17:18:55.335Z,14.55
2022-12-27T17:21:30.808Z,18.00
2022-12-27T17:24:06.826Z,12.13
2022-12-27T17:26:54.655Z,13.45
2022-12-27T17:29:41.719Z,12.07
2022-12-27T17:32:39.377Z,13.35
2022-12-27T17:35:14.512Z,13.38
2022-12-27T17:37:53.505Z,13.88
2022-12-27T17:40:36.773Z,12.95
2022-12-27T17:43:36.266Z,16.90
2022-12-27T17:48:46.006Z,11.93
2022-12-27T17:51:20.093Z,12.57
2022-12-27T17:54:08.032Z,10.63
2022-12-27T17:57:02.803Z,10.77
2022-12-27T17:59:35.499Z,11.68
2022-12-27T18:02:20.771Z,15.73
2022-12-27T18:04:54.378Z,14.32
2022-12-27T18:07:29.024Z,12.95
2022-12-27T18:10:01.459Z,14.75
2022-12-27T18:12:38.603Z,12.20
2022-12-27T18:15:14.515Z,9.88
2022-12-27T18:17:46.487Z,17.25
2022-12-27T18:20:32.709Z,12.20
2022-12-27T18:23:25.546Z,12.45
2022-12-27T18:28:32.871Z,11.43
2022-12-27T18:31:08.753Z,10.18
2022-12-27T18:33:43.998Z,11.38
2022-12-27T18:36:17.676Z,12.20
2022-12-27T18:41:21.600Z,10.93
2022-12-27T18:43:56.703Z,11.35
2022-12-27T18:46:31.152Z,10.02
2022-12-27T18:49:00.135Z,10.43
2022-12-27T18:51:34.449Z,11.80
2022-12-27T18:54:03.547Z,12.45
2022-12-27T18:56:34.210Z,9.98
2022-12-27T18:59:07.515Z,9.88
2022-12-27T19:01:42.940Z,9.85
2022-12-27T19:04:26.437Z,9.30
2022-12-27T19:06:58.723Z,10.00
2022-12-27T19:09:30.298Z,9.55
2022-12-27T19:12:00.921Z,11.32
2022-12-27T19:14:38.722Z,10.35
2022-12-27T19:17:11.332Z,9.98
2022-12-27T19:19:40.468Z,11.25
2022-12-27T19:22:35.547Z,10.80
2022-12-27T19:27:58.756Z,11.05
2022-12-27T19:30:38.110Z,10.43
2022-12-27T19:33:15.105Z,11.05
2022-12-27T19:35:44.302Z,8.95
2022-12-27T19:38:21.909Z,8.07
2022-12-27T19:40:59.520Z,9.48
2022-12-27T19:43:39.823Z,8.05
2022-12-27T19:46:14.230Z,8.30
2022-12-27T19:49:01.060Z,8.70
2022-12-27T19:51:38.318Z,8.35
2022-12-27T19:54:18.074Z,8.35
2022-12-27T19:56:53.645Z,8.07
2022-12-27T19:59:24.163Z,8.68
2022-12-27T20:01:57.363Z,9.15
2022-12-27T20:04:35.063Z,8.00
2022-12-27T20:07:06.122Z,8.32
2022-12-27T20:09:50.372Z,9.50
2022-12-27T20:12:21.863Z,8.85
2022-12-27T20:14:51.662Z,9.32
2022-12-27T20:17:44.591Z,8.70
2022-12-27T20:20:16.385Z,9.38
2022-12-27T20:22:46.748Z,9.45
2022-12-27T20:25:30.310Z,9.32
2022-12-27T20:27:59.003Z,10.82
2022-12-27T20:30:30.582Z,10.95
2022-12-27T20:33:00.937Z,14.80
2022-12-27T20:35:30.268Z,14.13
2022-12-27T20:37:58.936Z,19.25
2022-12-27T20:40:27.800Z,12.80
2022-12-27T20:42:57.136Z,12.88
2022-12-27T20:45:25.925Z,16.13
2022-12-27T20:47:54.459Z,16.25
2022-12-27T20:50:25.361Z,14.00
2022-12-27T20:52:53.864Z,14.00
2022-12-27T20:55:22.461Z,19.80
2022-12-27T20:57:52.039Z,18.08
2022-12-27T21:00:20.608Z,17.23
2022-12-27T21:02:49.373Z,21.25
2022-12-27T21:05:18.547Z,17.73
2022-12-27T21:07:50.868Z,15.55
2022-12-27T21:10:20.434Z,11.70
2022-12-27T21:12:48.984Z,10.02
2022-12-27T21:15:17.757Z,14.07
2022-12-27T21:17:47.407Z,11.15
2022-12-27T21:20:16.186Z,10.88
2022-12-27T21:22:44.973Z,11.27
2022-12-27T21:25:16.063Z,15.73
2022-12-27T21:27:44.571Z,9.48
2022-12-27T21:30:15.277Z,10.65
2022-12-27T21:32:44.010Z,18.98
2022-12-27T21:35:12.424Z,9.93
2022-12-27T21:37:40.974Z,8.93
2022-12-27T21:40:10.711Z,9.20
2022-12-27T21:42:40.656Z,11.20
2022-12-27T21:45:09.711Z,8.15
2022-12-27T21:47:38.205Z,8.80
2022-12-27T21:50:08.475Z,7.78
2022-12-27T21:52:37.164Z,16.95
2022-12-27T21:55:07.282Z,18.15
2022-12-27T21:57:35.896Z,11.80
2022-12-27T22:00:06.716Z,9.82
2022-12-27T22:02:36.290Z,9.63
2022-12-27T22:05:05.117Z,10.88
2022-12-27T22:07:33.964Z,8.52
2022-12-27T22:10:02.893Z,10.57
2022-12-27T22:12:32.299Z,8.82
2022-12-27T22:15:01.074Z,10.38
2022-12-27T22:17:32.171Z,20.20
2022-12-27T22:20:00.855Z,17.23
2022-12-27T22:22:30.064Z,11.45
2022-12-27T22:24:58.546Z,10.48
2022-12-27T22:27:28.027Z,11.02
2022-12-27T22:29:59.196Z,9.70
2022-12-27T22:32:27.773Z,11.35
2022-12-27T22:34:57.673Z,8.70
2022-12-27T22:37:26.573Z,14.02
2022-12-27T22:39:55.068Z,11.63
2022-12-27T22:42:23.979Z,12.68
2022-12-27T22:44:52.594Z,12.18
2022-12-27T22:47:28.684Z,12.57
2022-12-27T22:50:01.187Z,14.18
2022-12-27T22:52:29.859Z,15.75
2022-12-27T22:55:05.032Z,12.23
2022-12-27T22:57:35.943Z,12.23
2022-12-27T23:00:06.747Z,10.63
2022-12-27T23:02:35.445Z,12.77
2022-12-27T23:05:05.985Z,13.15
2022-12-27T23:08:05.578Z,10.02
2022-12-27T23:10:23.919Z,9.10
2022-12-27T23:12:54.904Z,9.57
2022-12-27T23:15:23.426Z,8.93
2022-12-27T23:17:52.913Z,10.05
2022-12-27T23:20:23.065Z,9.95
2022-12-27T23:22:55.976Z,13.07
2022-12-27T23:25:24.493Z,17.05
2022-12-27T23:27:54.124Z,10.63
2022-12-27T23:30:23.106Z,23.10
2022-12-27T23:32:51.916Z,11.38
2022-12-27T23:35:20.508Z,20.70
2022-12-27T23:37:53.467Z,19.85
2022-12-27T23:40:22.234Z,15.40
2022-12-27T23:42:50.686Z,14.10
2022-12-27T23:45:20.309Z,14.95
2022-12-27T23:47:48.912Z,17.02
2022-12-27T23:50:20.983Z,19.55
2022-12-27T23:52:51.505Z,20.75
2022-12-27T23:55:20.025Z,12.93
2022-12-27T23:57:48.634Z,13.60
